sensor_id;sensor_type;location;lat;lon;timestamp;temperature;humidity
75500;DHT22;64076;51.466;7.260;2023-04-09T00:02:12;21.30;38.30
75500;DHT22;64076;51.466;7.260;2023-04-09T00:04:38;21.30;38.30
75500;DHT22;64076;51.466;7.260;2023-04-09T00:07:03;21.30;38.30
75500;DHT22;64076;51.466;7.260;2023-04-09T00:09:29;21.30;38.30
75500;DHT22;64076;51.466;7.260;2023-04-09T00:11:54;21.30;38.20
75500;DHT22;64076;51.466;7.260;2023-04-09T00:14:21;21.30;38.20
75500;DHT22;64076;51.466;7.260;2023-04-09T00:16:46;21.30;38.20
75500;DHT22;64076;51.466;7.260;2023-04-09T00:19:12;21.30;38.20
75500;DHT22;64076;51.466;7.260;2023-04-09T00:21:37;21.30;38.20
75500;DHT22;64076;51.466;7.260;2023-04-09T00:24:03;21.30;38.20
75500;DHT22;64076;51.466;7.260;2023-04-09T00:26:30;21.20;38.20
75500;DHT22;64076;51.466;7.260;2023-04-09T00:28:55;21.20;38.20
75500;DHT22;64076;51.466;7.260;2023-04-09T00:31:21;21.20;38.20
75500;DHT22;64076;51.466;7.260;2023-04-09T00:33:46;21.30;38.20
75500;DHT22;64076;51.466;7.260;2023-04-09T00:36:12;21.30;38.20
75500;DHT22;64076;51.466;7.260;2023-04-09T00:38:37;21.20;38.20
75500;DHT22;64076;51.466;7.260;2023-04-09T00:41:03;21.20;38.20
75500;DHT22;64076;51.466;7.260;2023-04-09T00:43:28;21.20;38.10
75500;DHT22;64076;51.466;7.260;2023-04-09T00:45:54;21.20;38.10
75500;DHT22;64076;51.466;7.260;2023-04-09T00:48:20;21.20;38.10
75500;DHT22;64076;51.466;7.260;2023-04-09T00:50:46;21.20;38.10
75500;DHT22;64076;51.466;7.260;2023-04-09T00:53:12;21.20;38.10
75500;DHT22;64076;51.466;7.260;2023-04-09T00:55:39;21.20;38.00
75500;DHT22;64076;51.466;7.260;2023-04-09T00:58:06;21.20;38.00
75500;DHT22;64076;51.466;7.260;2023-04-09T01:00:31;21.20;38.10
75500;DHT22;64076;51.466;7.260;2023-04-09T01:02:58;21.20;38.00
75500;DHT22;64076;51.466;7.260;2023-04-09T01:05:33;21.20;38.00
75500;DHT22;64076;51.466;7.260;2023-04-09T01:08:23;21.20;38.00
75500;DHT22;64076;51.466;7.260;2023-04-09T01:10:55;21.20;38.00
75500;DHT22;64076;51.466;7.260;2023-04-09T01:13:30;21.20;38.00
75500;DHT22;64076;51.466;7.260;2023-04-09T01:16:00;21.10;38.00
75500;DHT22;64076;51.466;7.260;2023-04-09T01:18:36;21.10;38.00
75500;DHT22;64076;51.466;7.260;2023-04-09T01:21:14;21.10;37.90
75500;DHT22;64076;51.466;7.260;2023-04-09T01:23:58;21.10;37.90
75500;DHT22;64076;51.466;7.260;2023-04-09T01:28:56;21.10;37.90
75500;DHT22;64076;51.466;7.260;2023-04-09T01:31:33;21.10;37.90
75500;DHT22;64076;51.466;7.260;2023-04-09T01:34:00;21.10;37.90
75500;DHT22;64076;51.466;7.260;2023-04-09T01:36:27;21.10;37.90
75500;DHT22;64076;51.466;7.260;2023-04-09T01:38:56;21.10;37.90
75500;DHT22;64076;51.466;7.260;2023-04-09T01:41:22;21.10;37.90
75500;DHT22;64076;51.466;7.260;2023-04-09T01:43:50;21.10;37.90
75500;DHT22;64076;51.466;7.260;2023-04-09T01:46:17;21.10;37.90
75500;DHT22;64076;51.466;7.260;2023-04-09T01:48:44;21.10;37.80
75500;DHT22;64076;51.466;7.260;2023-04-09T01:51:11;21.10;37.80
75500;DHT22;64076;51.466;7.260;2023-04-09T01:53:39;21.10;37.80
75500;DHT22;64076;51.466;7.260;2023-04-09T01:56:05;21.10;37.80
75500;DHT22;64076;51.466;7.260;2023-04-09T01:58:31;21.10;37.80
75500;DHT22;64076;51.466;7.260;2023-04-09T02:03:38;21.10;37.80
75500;DHT22;64076;51.466;7.260;2023-04-09T02:06:46;21.10;37.80
75500;DHT22;64076;51.466;7.260;2023-04-09T02:09:15;21.10;37.70
75500;DHT22;64076;51.466;7.260;2023-04-09T02:11:42;21.10;37.80
75500;DHT22;64076;51.466;7.260;2023-04-09T02:14:09;21.10;37.80
75500;DHT22;64076;51.466;7.260;2023-04-09T02:16:36;21.10;37.80
75500;DHT22;64076;51.466;7.260;2023-04-09T02:19:02;21.10;37.70
75500;DHT22;64076;51.466;7.260;2023-04-09T02:21:28;21.10;37.70
75500;DHT22;64076;51.466;7.260;2023-04-09T02:23:54;21.00;37.70
75500;DHT22;64076;51.466;7.260;2023-04-09T02:28:47;21.00;37.70
75500;DHT22;64076;51.466;7.260;2023-04-09T02:31:12;21.00;37.70
75500;DHT22;64076;51.466;7.260;2023-04-09T02:33:38;21.00;37.70
75500;DHT22;64076;51.466;7.260;2023-04-09T02:36:04;21.00;37.60
75500;DHT22;64076;51.466;7.260;2023-04-09T02:38:30;21.00;37.60
75500;DHT22;64076;51.466;7.260;2023-04-09T02:40:56;21.00;37.50
75500;DHT22;64076;51.466;7.260;2023-04-09T02:43:21;21.00;37.50
75500;DHT22;64076;51.466;7.260;2023-04-09T02:45:47;21.00;37.50
75500;DHT22;64076;51.466;7.260;2023-04-09T02:48:12;21.00;37.50
75500;DHT22;64076;51.466;7.260;2023-04-09T02:50:38;21.00;37.50
75500;DHT22;64076;51.466;7.260;2023-04-09T02:53:04;21.00;37.50
75500;DHT22;64076;51.466;7.260;2023-04-09T02:55:29;20.90;37.50
75500;DHT22;64076;51.466;7.260;2023-04-09T02:57:55;21.00;37.50
75500;DHT22;64076;51.466;7.260;2023-04-09T03:00:20;21.00;37.50
75500;DHT22;64076;51.466;7.260;2023-04-09T03:05:12;20.90;37.50
75500;DHT22;64076;51.466;7.260;2023-04-09T03:07:37;20.90;37.40
75500;DHT22;64076;51.466;7.260;2023-04-09T03:10:03;20.90;37.40
75500;DHT22;64076;51.466;7.260;2023-04-09T03:14:55;20.90;37.20
75500;DHT22;64076;51.466;7.260;2023-04-09T03:17:20;20.90;37.20
75500;DHT22;64076;51.466;7.260;2023-04-09T03:22:12;20.90;37.20
75500;DHT22;64076;51.466;7.260;2023-04-09T03:24:37;20.90;37.20
75500;DHT22;64076;51.466;7.260;2023-04-09T03:27:03;20.90;37.20
75500;DHT22;64076;51.466;7.260;2023-04-09T03:29:28;20.90;37.10
75500;DHT22;64076;51.466;7.260;2023-04-09T03:31:54;20.90;37.10
75500;DHT22;64076;51.466;7.260;2023-04-09T03:34:19;20.90;37.10
75500;DHT22;64076;51.466;7.260;2023-04-09T03:39:11;20.90;37.00
75500;DHT22;64076;51.466;7.260;2023-04-09T03:41:36;20.90;37.00
75500;DHT22;64076;51.466;7.260;2023-04-09T03:46:28;20.90;37.00
75500;DHT22;64076;51.466;7.260;2023-04-09T03:48:53;20.90;37.00
75500;DHT22;64076;51.466;7.260;2023-04-09T03:51:19;20.90;36.90
75500;DHT22;64076;51.466;7.260;2023-04-09T03:53:44;20.90;36.90
75500;DHT22;64076;51.466;7.260;2023-04-09T03:56:10;20.90;37.00
75500;DHT22;64076;51.466;7.260;2023-04-09T03:58:36;20.90;36.90
75500;DHT22;64076;51.466;7.260;2023-04-09T04:01:02;20.80;36.90
75500;DHT22;64076;51.466;7.260;2023-04-09T04:03:28;20.80;36.80
75500;DHT22;64076;51.466;7.260;2023-04-09T04:05:53;20.80;36.80
75500;DHT22;64076;51.466;7.260;2023-04-09T04:08:24;20.80;36.70
75500;DHT22;64076;51.466;7.260;2023-04-09T04:10:49;20.80;36.70
75500;DHT22;64076;51.466;7.260;2023-04-09T04:13:14;20.80;36.70
75500;DHT22;64076;51.466;7.260;2023-04-09T04:15:40;20.80;36.70
75500;DHT22;64076;51.466;7.260;2023-04-09T04:18:06;20.80;36.70
75500;DHT22;64076;51.466;7.260;2023-04-09T04:20:32;20.80;36.70
75500;DHT22;64076;51.466;7.260;2023-04-09T04:22:58;20.80;36.70
75500;DHT22;64076;51.466;7.260;2023-04-09T04:25:23;20.80;36.70
75500;DHT22;64076;51.466;7.260;2023-04-09T04:27:49;20.80;36.60
75500;DHT22;64076;51.466;7.260;2023-04-09T04:30:15;20.80;36.60
75500;DHT22;64076;51.466;7.260;2023-04-09T04:32:40;20.70;36.60
75500;DHT22;64076;51.466;7.260;2023-04-09T04:35:06;20.80;36.60
75500;DHT22;64076;51.466;7.260;2023-04-09T04:37:32;20.80;36.60
75500;DHT22;64076;51.466;7.260;2023-04-09T04:40:00;20.70;36.50
75500;DHT22;64076;51.466;7.260;2023-04-09T04:42:25;20.80;36.50
75500;DHT22;64076;51.466;7.260;2023-04-09T04:47:17;20.80;36.50
75500;DHT22;64076;51.466;7.260;2023-04-09T04:52:09;20.70;36.40
75500;DHT22;64076;51.466;7.260;2023-04-09T04:59:27;20.80;36.40
75500;DHT22;64076;51.466;7.260;2023-04-09T05:01:53;20.70;36.40
75500;DHT22;64076;51.466;7.260;2023-04-09T05:04:18;20.70;36.30
75500;DHT22;64076;51.466;7.260;2023-04-09T05:11:36;20.70;36.40
75500;DHT22;64076;51.466;7.260;2023-04-09T05:16:29;20.70;36.30
75500;DHT22;64076;51.466;7.260;2023-04-09T05:26:12;20.70;36.30
75500;DHT22;64076;51.466;7.260;2023-04-09T05:33:36;20.70;36.30
75500;DHT22;64076;51.466;7.260;2023-04-09T05:40:54;20.70;36.30
75500;DHT22;64076;51.466;7.260;2023-04-09T05:53:04;20.70;36.20
75500;DHT22;64076;51.466;7.260;2023-04-09T05:55:31;20.70;36.20
75500;DHT22;64076;51.466;7.260;2023-04-09T06:00:23;20.70;36.10
75500;DHT22;64076;51.466;7.260;2023-04-09T06:02:48;20.70;36.10
75500;DHT22;64076;51.466;7.260;2023-04-09T06:05:14;20.70;36.10
75500;DHT22;64076;51.466;7.260;2023-04-09T06:07:39;20.70;36.10
75500;DHT22;64076;51.466;7.260;2023-04-09T06:10:06;20.80;36.00
75500;DHT22;64076;51.466;7.260;2023-04-09T06:12:33;20.80;36.00
75500;DHT22;64076;51.466;7.260;2023-04-09T06:14:59;20.80;36.00
75500;DHT22;64076;51.466;7.260;2023-04-09T06:17:25;20.80;35.90
75500;DHT22;64076;51.466;7.260;2023-04-09T06:19:50;20.80;35.90
75500;DHT22;64076;51.466;7.260;2023-04-09T06:22:16;20.80;35.90
75500;DHT22;64076;51.466;7.260;2023-04-09T06:24:41;20.90;35.80
75500;DHT22;64076;51.466;7.260;2023-04-09T06:27:07;20.90;35.80
75500;DHT22;64076;51.466;7.260;2023-04-09T06:29:32;20.90;35.70
75500;DHT22;64076;51.466;7.260;2023-04-09T06:31:58;21.00;35.60
75500;DHT22;64076;51.466;7.260;2023-04-09T06:34:23;21.00;35.60
75500;DHT22;64076;51.466;7.260;2023-04-09T06:36:49;21.10;35.50
75500;DHT22;64076;51.466;7.260;2023-04-09T06:39:14;21.10;35.50
75500;DHT22;64076;51.466;7.260;2023-04-09T06:41:40;21.10;35.40
75500;DHT22;64076;51.466;7.260;2023-04-09T06:44:05;21.10;35.40
75500;DHT22;64076;51.466;7.260;2023-04-09T06:46:31;21.20;35.40
75500;DHT22;64076;51.466;7.260;2023-04-09T06:48:56;21.20;35.40
75500;DHT22;64076;51.466;7.260;2023-04-09T06:51:22;21.30;35.20
75500;DHT22;64076;51.466;7.260;2023-04-09T06:53:47;21.40;35.10
75500;DHT22;64076;51.466;7.260;2023-04-09T06:56:13;21.50;35.00
75500;DHT22;64076;51.466;7.260;2023-04-09T06:58:39;21.60;34.90
75500;DHT22;64076;51.466;7.260;2023-04-09T07:01:05;21.70;34.80
75500;DHT22;64076;51.466;7.260;2023-04-09T07:03:31;21.70;34.70
75500;DHT22;64076;51.466;7.260;2023-04-09T07:05:56;21.80;34.70
75500;DHT22;64076;51.466;7.260;2023-04-09T07:08:23;21.90;34.60
75500;DHT22;64076;51.466;7.260;2023-04-09T07:10:49;21.90;34.50
75500;DHT22;64076;51.466;7.260;2023-04-09T07:13:14;22.00;34.50
75500;DHT22;64076;51.466;7.260;2023-04-09T07:15:40;22.00;34.40
75500;DHT22;64076;51.466;7.260;2023-04-09T07:18:06;22.10;34.40
75500;DHT22;64076;51.466;7.260;2023-04-09T07:20:31;22.20;34.30
75500;DHT22;64076;51.466;7.260;2023-04-09T07:22:58;22.20;34.30
75500;DHT22;64076;51.466;7.260;2023-04-09T07:25:24;22.30;34.20
75500;DHT22;64076;51.466;7.260;2023-04-09T07:27:50;22.40;34.20
75500;DHT22;64076;51.466;7.260;2023-04-09T07:30:16;22.40;34.20
75500;DHT22;64076;51.466;7.260;2023-04-09T07:32:41;22.50;34.10
75500;DHT22;64076;51.466;7.260;2023-04-09T07:35:07;22.50;34.10
75500;DHT22;64076;51.466;7.260;2023-04-09T07:37:36;22.60;34.10
75500;DHT22;64076;51.466;7.260;2023-04-09T07:40:02;22.60;34.10
75500;DHT22;64076;51.466;7.260;2023-04-09T07:42:29;22.70;34.10
75500;DHT22;64076;51.466;7.260;2023-04-09T07:44:54;22.70;34.10
75500;DHT22;64076;51.466;7.260;2023-04-09T07:47:22;22.70;34.10
75500;DHT22;64076;51.466;7.260;2023-04-09T07:49:48;22.70;34.10
75500;DHT22;64076;51.466;7.260;2023-04-09T07:52:13;22.70;34.10
75500;DHT22;64076;51.466;7.260;2023-04-09T07:54:39;22.70;34.20
75500;DHT22;64076;51.466;7.260;2023-04-09T07:57:05;22.70;34.20
75500;DHT22;64076;51.466;7.260;2023-04-09T07:59:31;22.70;34.20
75500;DHT22;64076;51.466;7.260;2023-04-09T08:01:57;22.70;34.30
75500;DHT22;64076;51.466;7.260;2023-04-09T08:04:23;22.60;34.40
75500;DHT22;64076;51.466;7.260;2023-04-09T08:06:48;22.70;34.30
75500;DHT22;64076;51.466;7.260;2023-04-09T08:09:20;22.60;34.40
75500;DHT22;64076;51.466;7.260;2023-04-09T08:11:47;22.60;34.40
75500;DHT22;64076;51.466;7.260;2023-04-09T08:14:14;22.60;34.40
75500;DHT22;64076;51.466;7.260;2023-04-09T08:16:42;22.60;34.50
75500;DHT22;64076;51.466;7.260;2023-04-09T08:19:08;22.60;34.50
75500;DHT22;64076;51.466;7.260;2023-04-09T08:21:38;22.60;34.50
75500;DHT22;64076;51.466;7.260;2023-04-09T08:24:04;22.60;34.50
75500;DHT22;64076;51.466;7.260;2023-04-09T08:26:31;22.50;34.50
75500;DHT22;64076;51.466;7.260;2023-04-09T08:28:57;22.50;34.50
75500;DHT22;64076;51.466;7.260;2023-04-09T08:31:23;22.50;34.60
75500;DHT22;64076;51.466;7.260;2023-04-09T08:33:49;22.50;34.60
75500;DHT22;64076;51.466;7.260;2023-04-09T08:36:14;22.50;34.60
75500;DHT22;64076;51.466;7.260;2023-04-09T08:38:40;22.50;34.60
75500;DHT22;64076;51.466;7.260;2023-04-09T08:41:06;22.50;34.60
75500;DHT22;64076;51.466;7.260;2023-04-09T08:43:32;22.50;34.60
75500;DHT22;64076;51.466;7.260;2023-04-09T08:46:00;22.50;34.60
75500;DHT22;64076;51.466;7.260;2023-04-09T08:48:27;22.50;34.70
75500;DHT22;64076;51.466;7.260;2023-04-09T08:50:54;22.50;34.60
75500;DHT22;64076;51.466;7.260;2023-04-09T08:53:20;22.50;34.60
75500;DHT22;64076;51.466;7.260;2023-04-09T08:55:46;22.50;34.60
75500;DHT22;64076;51.466;7.260;2023-04-09T08:58:12;22.40;34.60
75500;DHT22;64076;51.466;7.260;2023-04-09T09:00:38;22.40;34.50
75500;DHT22;64076;51.466;7.260;2023-04-09T09:03:08;22.50;34.60
75500;DHT22;64076;51.466;7.260;2023-04-09T09:05:45;22.40;34.50
75500;DHT22;64076;51.466;7.260;2023-04-09T09:08:21;22.40;34.50
75500;DHT22;64076;51.466;7.260;2023-04-09T09:10:47;22.40;34.50
75500;DHT22;64076;51.466;7.260;2023-04-09T09:15:41;22.40;34.40
75500;DHT22;64076;51.466;7.260;2023-04-09T09:18:06;22.40;34.40
75500;DHT22;64076;51.466;7.260;2023-04-09T09:20:32;22.40;34.40
75500;DHT22;64076;51.466;7.260;2023-04-09T09:22:57;22.40;34.40
75500;DHT22;64076;51.466;7.260;2023-04-09T09:25:24;22.40;34.40
75500;DHT22;64076;51.466;7.260;2023-04-09T09:27:51;22.40;34.40
75500;DHT22;64076;51.466;7.260;2023-04-09T09:30:21;22.40;34.30
75500;DHT22;64076;51.466;7.260;2023-04-09T09:32:54;22.40;34.30
75500;DHT22;64076;51.466;7.260;2023-04-09T09:35:28;22.40;34.30
75500;DHT22;64076;51.466;7.260;2023-04-09T09:38:03;22.40;34.30
75500;DHT22;64076;51.466;7.260;2023-04-09T09:40:28;22.30;34.20
75500;DHT22;64076;51.466;7.260;2023-04-09T09:42:55;22.30;34.30
75500;DHT22;64076;51.466;7.260;2023-04-09T09:45:21;22.30;34.30
75500;DHT22;64076;51.466;7.260;2023-04-09T09:47:48;22.30;34.20
75500;DHT22;64076;51.466;7.260;2023-04-09T09:50:14;22.30;34.20
75500;DHT22;64076;51.466;7.260;2023-04-09T09:52:43;22.30;34.20
75500;DHT22;64076;51.466;7.260;2023-04-09T09:55:12;22.30;34.10
75500;DHT22;64076;51.466;7.260;2023-04-09T09:57:41;22.30;34.10
75500;DHT22;64076;51.466;7.260;2023-04-09T10:00:13;22.20;34.10
75500;DHT22;64076;51.466;7.260;2023-04-09T10:02:43;22.20;34.00
75500;DHT22;64076;51.466;7.260;2023-04-09T10:05:12;22.20;34.10
75500;DHT22;64076;51.466;7.260;2023-04-09T10:07:38;22.20;34.00
75500;DHT22;64076;51.466;7.260;2023-04-09T10:10:06;22.20;33.90
75500;DHT22;64076;51.466;7.260;2023-04-09T10:12:33;22.20;33.90
75500;DHT22;64076;51.466;7.260;2023-04-09T10:14:59;22.20;33.80
75500;DHT22;64076;51.466;7.260;2023-04-09T10:17:29;22.20;33.80
75500;DHT22;64076;51.466;7.260;2023-04-09T10:20:04;22.20;33.80
75500;DHT22;64076;51.466;7.260;2023-04-09T10:22:33;22.20;33.80
75500;DHT22;64076;51.466;7.260;2023-04-09T10:25:02;22.20;33.80
75500;DHT22;64076;51.466;7.260;2023-04-09T10:27:28;22.20;33.70
75500;DHT22;64076;51.466;7.260;2023-04-09T10:29:53;22.20;33.70
75500;DHT22;64076;51.466;7.260;2023-04-09T10:32:20;22.10;33.70
75500;DHT22;64076;51.466;7.260;2023-04-09T10:34:46;22.10;33.60
75500;DHT22;64076;51.466;7.260;2023-04-09T10:37:15;22.10;33.70
75500;DHT22;64076;51.466;7.260;2023-04-09T10:39:46;22.10;33.60
75500;DHT22;64076;51.466;7.260;2023-04-09T10:47:35;22.10;33.40
75500;DHT22;64076;51.466;7.260;2023-04-09T10:50:33;22.10;33.40
75500;DHT22;64076;51.466;7.260;2023-04-09T10:53:02;22.10;33.20
75500;DHT22;64076;51.466;7.260;2023-04-09T10:55:33;22.10;33.30
75500;DHT22;64076;51.466;7.260;2023-04-09T10:57:59;22.10;33.20
75500;DHT22;64076;51.466;7.260;2023-04-09T11:00:25;22.10;33.20
75500;DHT22;64076;51.466;7.260;2023-04-09T11:03:05;22.10;33.10
75500;DHT22;64076;51.466;7.260;2023-04-09T11:05:35;22.10;33.10
75500;DHT22;64076;51.466;7.260;2023-04-09T11:08:12;22.20;33.10
75500;DHT22;64076;51.466;7.260;2023-04-09T11:10:42;22.10;33.10
75500;DHT22;64076;51.466;7.260;2023-04-09T11:13:13;22.10;33.10
75500;DHT22;64076;51.466;7.260;2023-04-09T11:15:43;22.10;33.00
75500;DHT22;64076;51.466;7.260;2023-04-09T11:18:13;22.10;33.00
75500;DHT22;64076;51.466;7.260;2023-04-09T11:20:39;22.10;33.00
75500;DHT22;64076;51.466;7.260;2023-04-09T11:23:05;22.10;33.00
75500;DHT22;64076;51.466;7.260;2023-04-09T11:25:32;22.10;33.00
75500;DHT22;64076;51.466;7.260;2023-04-09T11:28:01;22.10;33.10
75500;DHT22;64076;51.466;7.260;2023-04-09T11:30:27;22.10;33.00
75500;DHT22;64076;51.466;7.260;2023-04-09T11:32:53;22.10;33.00
75500;DHT22;64076;51.466;7.260;2023-04-09T11:35:20;22.10;32.90
75500;DHT22;64076;51.466;7.260;2023-04-09T11:37:47;22.00;33.00
75500;DHT22;64076;51.466;7.260;2023-04-09T11:42:39;22.00;32.90
75500;DHT22;64076;51.466;7.260;2023-04-09T11:45:06;22.10;32.90
75500;DHT22;64076;51.466;7.260;2023-04-09T11:47:32;22.10;32.90
75500;DHT22;64076;51.466;7.260;2023-04-09T11:49:58;22.00;32.90
75500;DHT22;64076;51.466;7.260;2023-04-09T11:52:23;22.00;32.90
75500;DHT22;64076;51.466;7.260;2023-04-09T11:54:49;22.00;32.80
75500;DHT22;64076;51.466;7.260;2023-04-09T11:57:16;22.00;32.70
75500;DHT22;64076;51.466;7.260;2023-04-09T11:59:41;22.10;32.80
75500;DHT22;64076;51.466;7.260;2023-04-09T12:02:07;22.00;32.70
75500;DHT22;64076;51.466;7.260;2023-04-09T12:04:33;22.10;32.70
75500;DHT22;64076;51.466;7.260;2023-04-09T12:06:58;22.10;32.70
75500;DHT22;64076;51.466;7.260;2023-04-09T12:09:24;22.10;32.60
75500;DHT22;64076;51.466;7.260;2023-04-09T12:11:50;22.10;32.70
75500;DHT22;64076;51.466;7.260;2023-04-09T12:14:17;22.10;32.70
75500;DHT22;64076;51.466;7.260;2023-04-09T12:16:43;22.00;32.70
75500;DHT22;64076;51.466;7.260;2023-04-09T12:19:11;22.10;32.60
75500;DHT22;64076;51.466;7.260;2023-04-09T12:24:17;22.00;32.70
75500;DHT22;64076;51.466;7.260;2023-04-09T12:26:44;22.00;32.60
75500;DHT22;64076;51.466;7.260;2023-04-09T12:29:10;22.00;32.60
75500;DHT22;64076;51.466;7.260;2023-04-09T12:31:36;22.00;32.60
75500;DHT22;64076;51.466;7.260;2023-04-09T12:34:01;22.00;32.60
75500;DHT22;64076;51.466;7.260;2023-04-09T12:36:27;22.00;32.60
75500;DHT22;64076;51.466;7.260;2023-04-09T12:38:52;22.00;32.60
75500;DHT22;64076;51.466;7.260;2023-04-09T12:41:18;22.00;32.60
75500;DHT22;64076;51.466;7.260;2023-04-09T12:43:43;22.00;32.60
75500;DHT22;64076;51.466;7.260;2023-04-09T12:46:09;22.00;32.60
75500;DHT22;64076;51.466;7.260;2023-04-09T12:48:34;22.00;32.60
75500;DHT22;64076;51.466;7.260;2023-04-09T12:51:00;22.00;32.60
75500;DHT22;64076;51.466;7.260;2023-04-09T12:53:26;22.00;32.60
75500;DHT22;64076;51.466;7.260;2023-04-09T12:55:52;22.00;32.50
75500;DHT22;64076;51.466;7.260;2023-04-09T12:58:17;22.00;32.50
75500;DHT22;64076;51.466;7.260;2023-04-09T13:00:43;22.00;32.50
75500;DHT22;64076;51.466;7.260;2023-04-09T13:03:08;22.00;32.50
75500;DHT22;64076;51.466;7.260;2023-04-09T13:05:34;22.00;32.50
75500;DHT22;64076;51.466;7.260;2023-04-09T13:08:00;22.00;32.50
75500;DHT22;64076;51.466;7.260;2023-04-09T13:10:27;22.00;32.50
75500;DHT22;64076;51.466;7.260;2023-04-09T13:12:53;22.00;32.50
75500;DHT22;64076;51.466;7.260;2023-04-09T13:15:18;22.00;32.50
75500;DHT22;64076;51.466;7.260;2023-04-09T13:17:44;22.00;32.50
75500;DHT22;64076;51.466;7.260;2023-04-09T13:20:10;22.00;32.50
75500;DHT22;64076;51.466;7.260;2023-04-09T13:22:35;22.10;32.50
75500;DHT22;64076;51.466;7.260;2023-04-09T13:25:02;22.00;32.50
75500;DHT22;64076;51.466;7.260;2023-04-09T13:27:28;22.00;32.50
75500;DHT22;64076;51.466;7.260;2023-04-09T13:29:54;22.00;32.50
75500;DHT22;64076;51.466;7.260;2023-04-09T13:32:20;22.00;32.50
75500;DHT22;64076;51.466;7.260;2023-04-09T13:34:46;22.10;32.50
75500;DHT22;64076;51.466;7.260;2023-04-09T13:37:11;22.00;32.50
75500;DHT22;64076;51.466;7.260;2023-04-09T13:39:37;22.00;32.50
75500;DHT22;64076;51.466;7.260;2023-04-09T13:42:02;22.00;32.50
75500;DHT22;64076;51.466;7.260;2023-04-09T13:44:28;22.00;32.50
75500;DHT22;64076;51.466;7.260;2023-04-09T13:46:53;22.00;32.50
75500;DHT22;64076;51.466;7.260;2023-04-09T13:49:19;22.00;32.50
75500;DHT22;64076;51.466;7.260;2023-04-09T13:51:45;22.00;32.50
75500;DHT22;64076;51.466;7.260;2023-04-09T13:54:11;22.00;32.50
75500;DHT22;64076;51.466;7.260;2023-04-09T13:56:37;22.00;32.50
75500;DHT22;64076;51.466;7.260;2023-04-09T13:59:03;22.00;32.50
75500;DHT22;64076;51.466;7.260;2023-04-09T14:01:29;22.00;32.40
75500;DHT22;64076;51.466;7.260;2023-04-09T14:03:55;22.00;32.40
75500;DHT22;64076;51.466;7.260;2023-04-09T14:06:21;22.10;32.40
75500;DHT22;64076;51.466;7.260;2023-04-09T14:08:49;22.00;32.40
75500;DHT22;64076;51.466;7.260;2023-04-09T14:11:15;22.00;32.40
75500;DHT22;64076;51.466;7.260;2023-04-09T14:13:41;22.00;32.40
75500;DHT22;64076;51.466;7.260;2023-04-09T14:16:07;22.00;32.40
75500;DHT22;64076;51.466;7.260;2023-04-09T14:18:33;22.00;32.40
75500;DHT22;64076;51.466;7.260;2023-04-09T14:20:59;22.00;32.40
75500;DHT22;64076;51.466;7.260;2023-04-09T14:23:25;22.00;32.40
75500;DHT22;64076;51.466;7.260;2023-04-09T14:25:50;22.00;32.40
75500;DHT22;64076;51.466;7.260;2023-04-09T14:28:16;22.00;32.40
75500;DHT22;64076;51.466;7.260;2023-04-09T14:30:41;22.00;32.40
75500;DHT22;64076;51.466;7.260;2023-04-09T14:33:07;22.00;32.40
75500;DHT22;64076;51.466;7.260;2023-04-09T14:35:33;22.00;32.30
75500;DHT22;64076;51.466;7.260;2023-04-09T14:37:58;22.00;32.40
75500;DHT22;64076;51.466;7.260;2023-04-09T14:40:25;22.00;32.40
75500;DHT22;64076;51.466;7.260;2023-04-09T14:42:51;22.00;32.40
75500;DHT22;64076;51.466;7.260;2023-04-09T14:45:16;22.00;32.30
75500;DHT22;64076;51.466;7.260;2023-04-09T14:47:42;22.00;32.30
75500;DHT22;64076;51.466;7.260;2023-04-09T14:50:08;22.00;32.40
75500;DHT22;64076;51.466;7.260;2023-04-09T14:52:35;22.00;32.30
75500;DHT22;64076;51.466;7.260;2023-04-09T14:55:00;22.00;32.40
75500;DHT22;64076;51.466;7.260;2023-04-09T14:57:26;22.00;32.30
75500;DHT22;64076;51.466;7.260;2023-04-09T14:59:51;22.00;32.30
75500;DHT22;64076;51.466;7.260;2023-04-09T15:02:17;22.00;32.30
75500;DHT22;64076;51.466;7.260;2023-04-09T15:04:42;22.00;32.30
75500;DHT22;64076;51.466;7.260;2023-04-09T15:07:08;22.00;32.30
75500;DHT22;64076;51.466;7.260;2023-04-09T15:09:33;22.00;32.30
75500;DHT22;64076;51.466;7.260;2023-04-09T15:15:21;22.00;32.30
75500;DHT22;64076;51.466;7.260;2023-04-09T15:17:47;21.90;32.30
75500;DHT22;64076;51.466;7.260;2023-04-09T15:20:12;21.90;32.30
75500;DHT22;64076;51.466;7.260;2023-04-09T15:30:22;21.90;32.30
75500;DHT22;64076;51.466;7.260;2023-04-09T15:32:47;21.90;32.20
75500;DHT22;64076;51.466;7.260;2023-04-09T15:35:13;21.90;32.20
75500;DHT22;64076;51.466;7.260;2023-04-09T15:37:43;21.90;32.20
75500;DHT22;64076;51.466;7.260;2023-04-09T15:40:09;21.90;32.20
75500;DHT22;64076;51.466;7.260;2023-04-09T15:42:34;21.90;32.20
75500;DHT22;64076;51.466;7.260;2023-04-09T15:45:00;21.90;32.20
75500;DHT22;64076;51.466;7.260;2023-04-09T15:47:25;21.90;32.20
75500;DHT22;64076;51.466;7.260;2023-04-09T15:49:51;21.90;32.20
75500;DHT22;64076;51.466;7.260;2023-04-09T15:52:17;21.90;32.20
75500;DHT22;64076;51.466;7.260;2023-04-09T15:54:42;21.90;32.20
75500;DHT22;64076;51.466;7.260;2023-04-09T15:57:08;21.90;32.20
75500;DHT22;64076;51.466;7.260;2023-04-09T15:59:33;21.90;32.10
75500;DHT22;64076;51.466;7.260;2023-04-09T16:01:59;21.90;32.10
75500;DHT22;64076;51.466;7.260;2023-04-09T16:04:24;21.90;32.10
75500;DHT22;64076;51.466;7.260;2023-04-09T16:06:51;21.90;32.10
75500;DHT22;64076;51.466;7.260;2023-04-09T16:09:18;21.90;32.10
75500;DHT22;64076;51.466;7.260;2023-04-09T16:11:43;21.90;32.10
75500;DHT22;64076;51.466;7.260;2023-04-09T16:14:09;21.90;32.10
75500;DHT22;64076;51.466;7.260;2023-04-09T16:16:35;21.90;32.10
75500;DHT22;64076;51.466;7.260;2023-04-09T16:19:01;21.90;32.10
75500;DHT22;64076;51.466;7.260;2023-04-09T16:21:26;21.90;32.10
75500;DHT22;64076;51.466;7.260;2023-04-09T16:23:52;21.90;32.10
75500;DHT22;64076;51.466;7.260;2023-04-09T16:26:18;21.90;32.10
75500;DHT22;64076;51.466;7.260;2023-04-09T16:28:43;21.90;32.10
75500;DHT22;64076;51.466;7.260;2023-04-09T16:31:09;21.90;32.10
75500;DHT22;64076;51.466;7.260;2023-04-09T16:33:34;21.90;32.10
75500;DHT22;64076;51.466;7.260;2023-04-09T16:36:00;21.90;32.10
75500;DHT22;64076;51.466;7.260;2023-04-09T16:38:25;21.90;32.10
75500;DHT22;64076;51.466;7.260;2023-04-09T16:40:53;21.90;32.20
75500;DHT22;64076;51.466;7.260;2023-04-09T16:43:18;21.80;32.20
75500;DHT22;64076;51.466;7.260;2023-04-09T16:45:44;21.80;32.20
75500;DHT22;64076;51.466;7.260;2023-04-09T16:48:10;21.80;32.20
75500;DHT22;64076;51.466;7.260;2023-04-09T16:50:38;21.80;32.20
75500;DHT22;64076;51.466;7.260;2023-04-09T16:53:04;21.80;32.20
75500;DHT22;64076;51.466;7.260;2023-04-09T16:55:29;21.80;32.20
75500;DHT22;64076;51.466;7.260;2023-04-09T16:57:55;21.80;32.10